createdAt,value
2024-01-29T00:00:00.063Z,50.78
2024-01-29T00:02:30.278Z,50.10
2024-01-29T00:04:58.090Z,50.73
2024-01-29T00:07:25.722Z,50.40
2024-01-29T00:09:53.365Z,50.41
2024-01-29T00:12:21.102Z,51.33
2024-01-29T00:14:48.778Z,50.38
2024-01-29T00:17:16.346Z,50.85
2024-01-29T00:19:44.025Z,50.67
2024-01-29T00:22:11.677Z,51.41
2024-01-29T00:24:39.461Z,50.88
2024-01-29T00:27:07.015Z,51.57
2024-01-29T00:29:34.887Z,51.20
2024-01-29T00:32:02.488Z,51.05
2024-01-29T00:34:30.145Z,51.19
2024-01-29T00:36:57.922Z,50.98
2024-01-29T00:39:25.570Z,51.08
2024-01-29T00:41:53.177Z,51.18
2024-01-29T00:44:21.107Z,51.49
2024-01-29T00:46:48.682Z,51.15
2024-01-29T00:49:16.317Z,51.74
2024-01-29T00:51:44.282Z,51.15
2024-01-29T00:54:11.962Z,51.37
2024-01-29T00:56:39.665Z,51.48
2024-01-29T00:59:07.206Z,52.11
2024-01-29T01:01:34.958Z,51.57
2024-01-29T01:04:02.748Z,51.93
2024-01-29T01:06:30.348Z,51.38
2024-01-29T01:08:57.968Z,52.07
2024-01-29T01:11:25.602Z,51.94
2024-01-29T01:13:54.625Z,51.79
2024-01-29T01:16:22.350Z,52.04
2024-01-29T01:18:50.228Z,51.56
2024-01-29T01:21:18.399Z,51.95
2024-01-29T01:23:45.955Z,52.22
2024-01-29T01:26:14.126Z,51.75
2024-01-29T01:28:41.717Z,51.96
2024-01-29T01:31:09.394Z,51.47
2024-01-29T01:33:36.991Z,52.26
2024-01-29T01:36:05.097Z,52.25
2024-01-29T01:38:32.921Z,51.95
2024-01-29T01:41:00.508Z,52.06
2024-01-29T01:43:28.084Z,51.81
2024-01-29T01:46:05.134Z,51.83
2024-01-29T01:48:35.140Z,52.43
2024-01-29T01:51:05.294Z,52.27
2024-01-29T01:53:35.757Z,52.34
2024-01-29T01:56:05.142Z,51.37
2024-01-29T01:58:34.801Z,51.93
2024-01-29T02:01:02.708Z,52.18
2024-01-29T02:03:30.536Z,51.70
2024-01-29T02:05:58.263Z,52.18
2024-01-29T02:08:26.277Z,51.93
2024-01-29T02:10:57.365Z,51.96
2024-01-29T02:13:25.346Z,52.11
2024-01-29T02:15:53.251Z,52.10
2024-01-29T02:18:20.921Z,52.45
2024-01-29T02:20:48.600Z,51.65
2024-01-29T02:23:16.147Z,51.92
2024-01-29T02:25:43.716Z,52.08
2024-01-29T02:28:11.311Z,51.57
2024-01-29T02:30:39.286Z,52.47
2024-01-29T02:33:06.956Z,52.43
2024-01-29T02:35:34.680Z,51.65
2024-01-29T02:38:02.273Z,51.97
2024-01-29T02:40:29.887Z,52.03
2024-01-29T02:42:57.627Z,52.58
2024-01-29T02:45:25.208Z,52.04
2024-01-29T02:47:52.868Z,52.00
2024-01-29T02:50:21.134Z,52.15
2024-01-29T02:52:48.706Z,52.56
2024-01-29T02:55:16.325Z,52.23
2024-01-29T02:57:44.025Z,52.34
2024-01-29T03:00:12.003Z,52.27
2024-01-29T03:02:39.577Z,52.16
2024-01-29T03:05:08.424Z,52.64
2024-01-29T03:07:36.196Z,51.88
2024-01-29T03:10:04.186Z,51.90
2024-01-29T03:12:31.913Z,52.06
2024-01-29T03:15:01.604Z,52.18
2024-01-29T03:17:31.096Z,52.65
2024-01-29T03:19:58.947Z,52.36
2024-01-29T03:22:26.725Z,52.46
2024-01-29T03:24:54.459Z,52.29
2024-01-29T03:27:22.102Z,52.43
2024-01-29T03:29:49.770Z,52.22
2024-01-29T03:32:17.482Z,52.07
2024-01-29T03:34:45.631Z,52.17
2024-01-29T03:37:13.640Z,52.28
2024-01-29T03:39:41.328Z,52.08
2024-01-29T03:42:09.608Z,52.80
2024-01-29T03:44:37.184Z,52.28
2024-01-29T03:47:04.942Z,52.60
2024-01-29T03:49:32.612Z,52.27
2024-01-29T03:52:00.217Z,51.72
2024-01-29T03:54:27.928Z,51.99
2024-01-29T03:56:55.558Z,51.79
2024-01-29T03:59:23.232Z,51.90
2024-01-29T04:01:51.178Z,52.58
2024-01-29T04:04:18.913Z,52.00
2024-01-29T04:06:48.005Z,52.40
2024-01-29T04:09:22.055Z,52.90
2024-01-29T04:11:53.037Z,52.61
2024-01-29T04:14:23.818Z,52.50
2024-01-29T04:16:52.068Z,52.59
2024-01-29T04:19:19.782Z,51.98
2024-01-29T04:21:47.569Z,52.25
2024-01-29T04:24:16.916Z,52.24
2024-01-29T04:26:44.466Z,52.23
2024-01-29T04:29:12.285Z,52.63
2024-01-29T04:31:39.845Z,52.18
2024-01-29T04:34:07.693Z,52.14
2024-01-29T04:36:35.338Z,52.38
2024-01-29T04:39:04.211Z,52.49
2024-01-29T04:41:32.082Z,52.52
2024-01-29T04:43:59.693Z,52.11
2024-01-29T04:46:27.268Z,52.37
2024-01-29T04:48:54.973Z,52.72
2024-01-29T04:51:23.078Z,52.58
2024-01-29T04:53:50.699Z,52.19
2024-01-29T04:56:18.577Z,52.39
2024-01-29T04:58:47.131Z,53.17
2024-01-29T05:01:14.850Z,52.93
2024-01-29T05:03:42.665Z,52.83
2024-01-29T05:06:10.972Z,52.46
2024-01-29T05:08:38.550Z,53.36
2024-01-29T05:11:06.222Z,53.22
2024-01-29T05:13:34.301Z,53.19
2024-01-29T05:16:03.035Z,53.07
2024-01-29T05:18:31.375Z,53.48
2024-01-29T05:20:58.926Z,52.71
2024-01-29T05:23:26.482Z,53.08
2024-01-29T05:25:54.056Z,53.12
2024-01-29T05:28:22.669Z,53.06
2024-01-29T05:30:53.050Z,52.93
2024-01-29T05:33:25.668Z,53.08
2024-01-29T05:35:58.066Z,53.04
2024-01-29T05:38:26.285Z,53.47
2024-01-29T05:40:53.927Z,52.72
2024-01-29T05:43:21.682Z,53.00
2024-01-29T05:45:49.248Z,52.99
2024-01-29T05:48:17.070Z,52.66
2024-01-29T05:50:44.663Z,53.23
2024-01-29T05:53:12.271Z,52.89
2024-01-29T05:55:40.736Z,52.95
2024-01-29T05:58:08.503Z,52.41
2024-01-29T06:00:36.861Z,52.96
2024-01-29T06:03:04.859Z,53.36
2024-01-29T06:05:32.529Z,52.94
2024-01-29T06:08:00.265Z,53.46
2024-01-29T06:10:28.265Z,53.16
2024-01-29T06:12:55.868Z,52.89
2024-01-29T06:15:25.030Z,53.14
2024-01-29T06:17:52.735Z,53.00
2024-01-29T06:20:20.751Z,53.22
2024-01-29T06:22:48.534Z,53.15
2024-01-29T06:25:20.521Z,53.03
2024-01-29T06:27:48.260Z,52.85
2024-01-29T06:30:16.682Z,52.64
2024-01-29T06:32:44.485Z,52.64
2024-01-29T06:35:12.185Z,53.02
2024-01-29T06:37:40.226Z,53.67
2024-01-29T06:40:09.369Z,53.10
2024-01-29T06:42:37.514Z,52.98
2024-01-29T06:45:05.911Z,53.05
2024-01-29T06:47:33.716Z,52.82
2024-01-29T06:50:01.638Z,52.97
2024-01-29T06:52:29.408Z,52.98
2024-01-29T06:54:57.584Z,53.76
2024-01-29T06:57:25.222Z,53.04
2024-01-29T06:59:52.922Z,53.58
2024-01-29T07:02:20.520Z,53.55
2024-01-29T07:04:48.186Z,53.92
2024-01-29T07:07:16.287Z,53.15
2024-01-29T07:09:43.919Z,53.24
2024-01-29T07:12:11.522Z,53.31
2024-01-29T07:14:41.938Z,53.12
2024-01-29T07:17:09.913Z,53.57
2024-01-29T07:19:37.743Z,53.37
2024-01-29T07:22:06.585Z,53.69
2024-01-29T07:24:38.208Z,53.19
2024-01-29T07:27:06.012Z,53.75
2024-01-29T07:29:33.602Z,54.09
2024-01-29T07:32:01.173Z,53.72
2024-01-29T07:34:29.093Z,53.72
2024-01-29T07:36:56.792Z,54.04
2024-01-29T07:39:25.270Z,53.81
2024-01-29T07:41:52.874Z,53.74
2024-01-29T07:44:20.518Z,53.80
2024-01-29T07:46:55.029Z,53.25
2024-01-29T07:49:22.998Z,53.88
2024-01-29T07:51:50.658Z,53.52
2024-01-29T07:54:18.225Z,53.88
2024-01-29T07:56:45.812Z,53.96
2024-01-29T07:59:13.515Z,54.30
2024-01-29T08:01:41.281Z,53.80
2024-01-29T08:04:09.123Z,53.94
2024-01-29T08:06:36.850Z,53.38
2024-01-29T08:09:07.190Z,53.47
2024-01-29T08:11:34.765Z,53.53
2024-01-29T08:14:02.363Z,53.75
2024-01-29T08:16:30.071Z,54.02
2024-01-29T08:18:58.622Z,53.35
2024-01-29T08:21:26.402Z,54.09
2024-01-29T08:23:53.978Z,54.02
2024-01-29T08:26:21.703Z,53.42
2024-01-29T08:28:49.259Z,53.28
2024-01-29T08:31:16.846Z,54.04
2024-01-29T08:33:44.993Z,53.72
2024-01-29T08:36:12.676Z,53.79
2024-01-29T08:38:41.996Z,53.64
2024-01-29T08:41:10.191Z,53.60
2024-01-29T08:43:37.752Z,54.09
2024-01-29T08:46:05.480Z,53.50
2024-01-29T08:48:33.840Z,54.09
2024-01-29T08:51:01.482Z,53.64
2024-01-29T08:53:29.075Z,53.39
2024-01-29T08:55:56.876Z,54.24
2024-01-29T08:58:26.415Z,53.35
2024-01-29T09:00:55.935Z,53.65
2024-01-29T09:03:25.705Z,53.86
2024-01-29T09:05:53.745Z,53.16
2024-01-29T09:08:23.433Z,53.82
2024-01-29T09:10:51.041Z,53.81
2024-01-29T09:13:18.663Z,53.75
2024-01-29T09:15:46.466Z,53.61
2024-01-29T09:18:14.140Z,54.03
2024-01-29T09:20:41.887Z,53.83
2024-01-29T09:23:09.912Z,53.95
2024-01-29T09:25:37.467Z,54.30
2024-01-29T09:28:05.458Z,54.15
2024-01-29T09:30:33.602Z,54.76
2024-01-29T09:33:10.720Z,54.88
2024-01-29T09:35:45.636Z,54.22
2024-01-29T09:38:15.383Z,53.75
2024-01-29T09:40:47.430Z,54.35
2024-01-29T09:43:21.800Z,53.93
2024-01-29T09:45:53.583Z,54.51
2024-01-29T09:48:23.440Z,54.22
2024-01-29T09:50:51.936Z,54.33
2024-01-29T09:53:22.039Z,54.44
2024-01-29T09:55:49.979Z,54.14
2024-01-29T09:58:17.656Z,54.00
2024-01-29T10:00:45.339Z,54.47
2024-01-29T10:03:33.334Z,53.74
2024-01-29T10:06:00.982Z,53.94
2024-01-29T10:08:30.847Z,53.84
2024-01-29T10:10:58.911Z,54.05
2024-01-29T10:13:26.577Z,54.14
2024-01-29T10:15:54.244Z,54.33
2024-01-29T10:18:25.759Z,53.94
2024-01-29T10:21:05.855Z,53.55
2024-01-29T10:23:33.979Z,53.43
2024-01-29T10:26:02.242Z,53.88
2024-01-29T10:28:29.912Z,53.94
2024-01-29T10:30:59.694Z,53.88
2024-01-29T10:33:27.557Z,53.91
2024-01-29T10:35:59.082Z,53.98
2024-01-29T10:38:29.632Z,54.31
2024-01-29T10:40:59.546Z,54.05
2024-01-29T10:43:38.398Z,54.55
2024-01-29T10:46:08.742Z,54.38
2024-01-29T10:48:37.797Z,54.26
2024-01-29T10:51:06.921Z,53.95
2024-01-29T10:53:35.516Z,54.12
2024-01-29T10:56:04.707Z,54.17
2024-01-29T10:58:32.709Z,54.35
2024-01-29T11:01:01.501Z,54.52
2024-01-29T11:03:30.574Z,54.41
2024-01-29T11:06:20.569Z,54.27
2024-01-29T11:08:55.831Z,54.81
2024-01-29T11:11:24.666Z,54.71
2024-01-29T11:13:52.735Z,54.72
2024-01-29T11:16:23.579Z,54.87
2024-01-29T11:18:52.052Z,54.71
2024-01-29T11:21:25.152Z,54.97
2024-01-29T11:23:57.208Z,55.00
2024-01-29T11:26:29.495Z,55.10
2024-01-29T11:29:08.398Z,55.29
2024-01-29T11:31:42.028Z,55.14
2024-01-29T11:34:10.574Z,55.12
2024-01-29T11:36:39.972Z,55.00
2024-01-29T11:39:10.003Z,55.03
2024-01-29T11:41:38.944Z,55.02
2024-01-29T11:44:06.933Z,54.62
2024-01-29T11:46:34.544Z,54.84
2024-01-29T11:49:02.544Z,54.51
2024-01-29T11:51:30.611Z,54.51
2024-01-29T11:54:00.560Z,54.49
2024-01-29T11:56:28.502Z,54.37
2024-01-29T11:59:03.467Z,54.67
2024-01-29T12:01:34.790Z,54.47
2024-01-29T12:04:03.485Z,54.51
2024-01-29T12:06:33.442Z,54.30
2024-01-29T12:09:01.379Z,54.07
2024-01-29T12:11:29.137Z,53.89
2024-01-29T12:13:58.276Z,53.82
2024-01-29T12:16:26.987Z,53.51
2024-01-29T12:18:56.163Z,53.70
2024-01-29T12:21:27.901Z,53.56
2024-01-29T12:23:56.896Z,53.31
2024-01-29T12:26:29.722Z,52.60
2024-01-29T12:29:00.226Z,52.79
2024-01-29T12:31:29.158Z,52.76
2024-01-29T12:33:56.908Z,52.44
2024-01-29T12:36:25.026Z,52.34
2024-01-29T12:38:55.298Z,52.60
2024-01-29T12:41:23.613Z,52.17
2024-01-29T12:43:52.679Z,52.17
2024-01-29T12:46:20.659Z,52.10
2024-01-29T12:48:48.768Z,51.81
2024-01-29T12:51:16.850Z,52.01
2024-01-29T12:53:56.669Z,51.90
2024-01-29T12:56:30.968Z,52.03
2024-01-29T12:58:58.763Z,51.57
2024-01-29T13:01:27.219Z,51.48
2024-01-29T13:03:55.163Z,51.47
2024-01-29T13:06:23.843Z,51.30
2024-01-29T13:08:51.857Z,51.15
2024-01-29T13:11:19.675Z,50.61
2024-01-29T13:13:47.372Z,50.64
2024-01-29T13:16:15.007Z,50.65
2024-01-29T13:18:42.790Z,50.43
2024-01-29T13:21:10.966Z,50.11
2024-01-29T13:23:39.286Z,50.30
2024-01-29T13:26:08.471Z,50.19
2024-01-29T13:28:36.198Z,50.28
2024-01-29T13:31:04.118Z,50.31
2024-01-29T13:33:31.991Z,50.56
2024-01-29T13:36:00.669Z,49.98
2024-01-29T13:38:28.309Z,49.76
2024-01-29T13:40:55.921Z,50.01
2024-01-29T13:43:23.569Z,49.81
2024-01-29T13:45:51.385Z,49.57
2024-01-29T13:48:19.482Z,49.92
2024-01-29T13:50:47.462Z,49.75
2024-01-29T13:53:15.485Z,49.78
2024-01-29T13:55:43.217Z,49.09
2024-01-29T13:58:11.109Z,48.88
2024-01-29T14:00:38.863Z,48.70
2024-01-29T14:03:06.564Z,48.36
2024-01-29T14:05:34.885Z,48.21
2024-01-29T14:08:02.601Z,48.04
2024-01-29T14:10:35.395Z,48.26
2024-01-29T14:13:04.565Z,48.21
2024-01-29T14:15:32.279Z,48.32
2024-01-29T14:18:00.019Z,48.03
2024-01-29T14:20:27.999Z,47.87
2024-01-29T14:22:58.312Z,47.71
2024-01-29T14:25:26.360Z,47.48
2024-01-29T14:27:54.055Z,47.37
2024-01-29T14:30:21.692Z,47.20
2024-01-29T14:32:49.534Z,47.32
2024-01-29T14:35:17.386Z,47.49
2024-01-29T14:37:44.979Z,47.32
2024-01-29T14:40:12.626Z,47.39
2024-01-29T14:42:40.318Z,47.15
2024-01-29T14:45:08.165Z,47.12
2024-01-29T14:47:35.902Z,47.37
2024-01-29T14:50:05.089Z,47.18
2024-01-29T14:52:32.789Z,46.97
2024-01-29T14:55:00.552Z,46.79
2024-01-29T14:57:28.221Z,46.73
2024-01-29T14:59:55.826Z,46.42
2024-01-29T15:02:23.513Z,46.52
2024-01-29T15:04:51.290Z,46.34
2024-01-29T15:07:19.033Z,46.72
2024-01-29T15:09:46.743Z,46.36
2024-01-29T15:12:14.428Z,46.33
2024-01-29T15:14:42.029Z,46.18
2024-01-29T15:17:09.692Z,45.99
2024-01-29T15:19:38.049Z,45.88
2024-01-29T15:22:07.253Z,46.08
2024-01-29T15:24:36.391Z,45.88
2024-01-29T15:27:04.299Z,45.87
2024-01-29T15:29:31.962Z,45.95
2024-01-29T15:31:59.731Z,46.05
2024-01-29T15:34:27.411Z,46.36
2024-01-29T15:36:55.200Z,46.36
2024-01-29T15:39:23.527Z,46.52
2024-01-29T15:41:51.815Z,46.79
2024-01-29T15:44:19.415Z,47.10
2024-01-29T15:46:48.530Z,47.14
2024-01-29T15:49:16.304Z,47.09
2024-01-29T15:51:43.961Z,47.44
2024-01-29T15:54:11.537Z,47.43
2024-01-29T15:56:39.098Z,47.21
2024-01-29T15:59:06.769Z,47.11
2024-01-29T16:01:34.511Z,47.70
2024-01-29T16:04:02.672Z,47.63
2024-01-29T16:06:30.472Z,47.47
2024-01-29T16:08:58.337Z,47.61
2024-01-29T16:11:25.957Z,47.66
2024-01-29T16:13:53.528Z,47.86
2024-01-29T16:16:21.165Z,47.93
2024-01-29T16:18:49.145Z,47.99
2024-01-29T16:21:23.061Z,47.89
2024-01-29T16:23:51.995Z,47.64
2024-01-29T16:26:20.537Z,47.82
2024-01-29T16:28:48.139Z,47.63
2024-01-29T16:31:15.934Z,47.03
2024-01-29T16:33:44.185Z,47.35
2024-01-29T16:36:23.551Z,47.70
2024-01-29T16:38:54.900Z,47.29
2024-01-29T16:41:26.671Z,47.94
2024-01-29T16:43:55.345Z,47.91
2024-01-29T16:46:24.423Z,47.75
2024-01-29T16:48:52.240Z,47.79
2024-01-29T16:51:27.819Z,47.87
2024-01-29T16:53:55.550Z,47.74
2024-01-29T16:56:35.104Z,47.46
2024-01-29T16:59:08.972Z,47.85
2024-01-29T17:01:36.978Z,47.47
2024-01-29T17:04:04.895Z,47.43
2024-01-29T17:06:32.641Z,47.69
2024-01-29T17:09:00.747Z,47.96
2024-01-29T17:11:28.344Z,47.96
2024-01-29T17:13:56.034Z,47.96
2024-01-29T17:16:23.716Z,47.88
2024-01-29T17:18:51.455Z,48.24
2024-01-29T17:21:19.191Z,47.89
2024-01-29T17:23:46.821Z,48.24
2024-01-29T17:26:15.068Z,48.25
2024-01-29T17:28:46.183Z,48.33
2024-01-29T17:31:14.026Z,48.09
2024-01-29T17:33:41.835Z,48.33
2024-01-29T17:36:10.037Z,48.01
2024-01-29T17:38:40.888Z,47.55
2024-01-29T17:41:08.554Z,47.53
2024-01-29T17:43:36.148Z,46.82
2024-01-29T17:46:03.901Z,46.81
2024-01-29T17:48:31.688Z,46.60
2024-01-29T17:50:59.603Z,46.64
2024-01-29T17:53:29.801Z,46.23
2024-01-29T17:55:57.824Z,46.31
2024-01-29T17:58:25.437Z,45.93
2024-01-29T18:00:53.382Z,45.64
2024-01-29T18:03:23.726Z,45.34
2024-01-29T18:05:51.327Z,45.22
2024-01-29T18:08:20.705Z,44.65
2024-01-29T18:10:48.361Z,44.89
2024-01-29T18:13:15.993Z,44.45
2024-01-29T18:15:43.654Z,44.68
2024-01-29T18:18:11.405Z,44.51
2024-01-29T18:20:39.046Z,44.43
2024-01-29T18:23:09.452Z,43.94
2024-01-29T18:25:40.107Z,43.87
2024-01-29T18:28:08.036Z,43.92
2024-01-29T18:30:36.725Z,43.67
2024-01-29T18:33:04.843Z,43.49
2024-01-29T18:35:32.508Z,43.72
2024-01-29T18:38:00.073Z,43.39
2024-01-29T18:40:33.257Z,43.55
2024-01-29T18:43:01.177Z,43.51
2024-01-29T18:45:28.909Z,43.76
2024-01-29T18:47:56.732Z,43.41
2024-01-29T18:50:24.470Z,43.29
2024-01-29T18:52:52.138Z,43.32
2024-01-29T18:55:20.244Z,43.26
2024-01-29T18:57:47.970Z,43.32
2024-01-29T19:00:16.649Z,43.77
2024-01-29T19:02:44.757Z,43.82
2024-01-29T19:05:13.448Z,44.14
2024-01-29T19:07:43.260Z,44.00
2024-01-29T19:10:11.572Z,43.89
2024-01-29T19:12:39.338Z,44.31
2024-01-29T19:15:08.036Z,44.52
2024-01-29T19:17:35.820Z,44.31
2024-01-29T19:20:04.541Z,44.82
2024-01-29T19:22:32.152Z,44.64
2024-01-29T19:25:01.742Z,45.47
2024-01-29T19:27:29.915Z,45.38
2024-01-29T19:29:57.465Z,45.36
2024-01-29T19:32:25.989Z,45.54
2024-01-29T19:34:53.766Z,45.68
2024-01-29T19:37:26.854Z,45.57
2024-01-29T19:39:55.634Z,45.63
2024-01-29T19:42:23.254Z,46.07
2024-01-29T19:44:50.913Z,46.06
2024-01-29T19:47:18.694Z,46.43
2024-01-29T19:49:47.523Z,46.54
2024-01-29T19:52:15.524Z,46.76
2024-01-29T19:54:45.115Z,46.52
2024-01-29T19:57:12.776Z,46.60
2024-01-29T19:59:40.850Z,46.67
2024-01-29T20:02:08.658Z,46.75
2024-01-29T20:04:39.266Z,46.74
2024-01-29T20:07:07.628Z,46.86
2024-01-29T20:09:35.469Z,47.31
2024-01-29T20:12:03.050Z,47.50
2024-01-29T20:14:31.348Z,47.17
2024-01-29T20:16:58.940Z,47.15
2024-01-29T20:19:28.483Z,46.96
2024-01-29T20:21:56.161Z,47.25
2024-01-29T20:24:23.721Z,46.94
2024-01-29T20:26:51.372Z,47.03
2024-01-29T20:29:19.012Z,47.02
2024-01-29T20:31:46.562Z,46.60
2024-01-29T20:34:14.564Z,46.29
2024-01-29T20:36:42.828Z,46.53
2024-01-29T20:39:11.961Z,46.56
2024-01-29T20:41:46.982Z,46.38
2024-01-29T20:44:16.203Z,46.14
2024-01-29T20:46:46.462Z,46.61
2024-01-29T20:49:14.977Z,46.60
2024-01-29T20:51:42.703Z,46.42
2024-01-29T20:54:13.381Z,46.51
2024-01-29T20:56:40.927Z,46.56
2024-01-29T20:59:08.727Z,46.64
2024-01-29T21:01:36.681Z,46.83
2024-01-29T21:04:05.947Z,46.49
2024-01-29T21:06:33.766Z,46.91
2024-01-29T21:09:01.605Z,47.08
2024-01-29T21:11:29.291Z,46.99
2024-01-29T21:13:56.948Z,47.02
2024-01-29T21:16:26.330Z,46.93
2024-01-29T21:18:55.162Z,46.87
2024-01-29T21:21:24.730Z,47.11
2024-01-29T21:23:52.323Z,47.00
2024-01-29T21:26:27.507Z,47.15
2024-01-29T21:28:55.813Z,47.37
2024-01-29T21:31:23.957Z,47.58
2024-01-29T21:33:51.687Z,47.52
2024-01-29T21:36:20.503Z,47.41
2024-01-29T21:38:48.079Z,47.77
2024-01-29T21:41:15.658Z,47.62
2024-01-29T21:43:43.535Z,47.33
2024-01-29T21:46:12.362Z,47.22
2024-01-29T21:48:40.182Z,47.51
2024-01-29T21:51:07.958Z,47.40
2024-01-29T21:53:35.895Z,47.75
2024-01-29T21:56:04.038Z,47.91
2024-01-29T21:58:31.854Z,47.68
2024-01-29T22:00:59.581Z,48.00
2024-01-29T22:03:27.242Z,48.16
2024-01-29T22:05:54.830Z,48.19
2024-01-29T22:08:22.405Z,48.38
2024-01-29T22:10:50.010Z,48.30
2024-01-29T22:13:17.853Z,47.88
2024-01-29T22:15:45.501Z,48.01
2024-01-29T22:18:13.118Z,48.05
2024-01-29T22:20:40.696Z,48.14
2024-01-29T22:23:08.521Z,48.11
2024-01-29T22:25:36.179Z,48.35
2024-01-29T22:28:04.818Z,48.57
2024-01-29T22:30:33.268Z,48.43
2024-01-29T22:33:00.910Z,48.58
2024-01-29T22:35:28.588Z,48.48
2024-01-29T22:37:56.143Z,48.08
2024-01-29T22:40:23.803Z,48.58
2024-01-29T22:42:52.485Z,48.74
2024-01-29T22:45:20.143Z,48.71
2024-01-29T22:47:47.705Z,48.85
2024-01-29T22:50:15.345Z,48.80
2024-01-29T22:52:45.739Z,48.94
2024-01-29T22:55:13.549Z,48.79
2024-01-29T22:57:41.181Z,48.75
2024-01-29T23:00:17.322Z,49.13
2024-01-29T23:02:45.265Z,49.29
2024-01-29T23:05:13.796Z,49.09
2024-01-29T23:07:44.160Z,49.11
2024-01-29T23:10:11.878Z,49.03
2024-01-29T23:12:39.886Z,49.19
2024-01-29T23:15:09.345Z,49.48
2024-01-29T23:17:37.061Z,49.25
2024-01-29T23:20:05.460Z,49.34
2024-01-29T23:22:33.100Z,49.07
2024-01-29T23:25:01.218Z,49.24
2024-01-29T23:27:28.833Z,48.78
2024-01-29T23:29:56.914Z,49.14
2024-01-29T23:32:24.483Z,49.37
2024-01-29T23:34:52.229Z,49.00
2024-01-29T23:37:24.968Z,49.11
2024-01-29T23:39:54.782Z,49.12
2024-01-29T23:42:22.875Z,49.08
2024-01-29T23:44:50.483Z,49.22
2024-01-29T23:47:18.055Z,49.04
2024-01-29T23:49:45.696Z,49.27
2024-01-29T23:52:13.757Z,49.12
2024-01-29T23:54:41.385Z,49.10
2024-01-29T23:57:08.997Z,49.27
2024-01-29T23:59:36.574Z,49.23
